Time,TemperatureF,DewpointF,PressureIn,WindDirection,WindDirectionDegrees,WindSpeedMPH,WindSpeedGustMPH,Humidity,HourlyPrecipIn,Conditions,Clouds,dailyrainin,SolarRadiationWatts/m^2,SoftwareType,DateUTC
2013-03-29 00:03:00,30.0,26.0,-100.00,NW,323,0.0,0.0,85,0.00,,,-99.99,0.000000,,2013-03-29 04:03:00,
2013-03-29 00:13:00,30.0,26.0,-100.00,NW,323,0.0,0.0,85,0.00,,,-99.99,0.000000,,2013-03-29 04:13:00,
2013-03-29 00:43:00,31.0,27.0,-100.00,NW,319,0.0,0.0,84,0.00,,,-99.99,0.000000,,2013-03-29 04:43:00,
2013-03-29 00:53:00,31.0,27.0,-100.00,NW,319,0.0,0.0,84,0.00,,,-99.99,0.000000,,2013-03-29 04:53:00,
2013-03-29 01:03:00,31.0,27.0,-100.00,NW,319,0.0,0.0,84,0.00,,,-99.99,0.000000,,2013-03-29 05:03:00,
2013-03-29 01:13:00,31.0,27.0,-100.00,NW,319,0.0,0.0,84,0.00,,,-99.99,0.000000,,2013-03-29 05:13:00,
2013-03-29 01:43:00,31.0,26.0,-100.00,NW,322,0.0,0.0,83,0.00,,,-99.99,0.000000,,2013-03-29 05:43:00,
2013-03-29 01:52:00,31.0,26.0,-100.00,NW,322,0.0,0.0,83,0.00,,,-99.99,0.000000,,2013-03-29 05:52:00,
2013-03-29 02:03:00,31.0,26.0,-100.00,NW,322,0.0,0.0,83,0.00,,,-99.99,0.000000,,2013-03-29 06:03:00,
2013-03-29 02:13:00,31.0,26.0,-100.00,NW,322,0.0,0.0,83,0.00,,,-99.99,0.000000,,2013-03-29 06:13:00,
2013-03-29 02:42:00,30.0,25.0,-100.00,NW,322,0.0,0.0,81,0.00,,,-99.99,0.000000,,2013-03-29 06:42:00,
2013-03-29 02:52:00,30.0,25.0,-100.00,NW,322,0.0,0.0,81,0.00,,,-99.99,0.000000,,2013-03-29 06:52:00,
2013-03-29 03:03:00,30.0,25.0,-100.00,NW,322,0.0,0.0,81,0.00,,,-99.99,0.000000,,2013-03-29 07:03:00,
2013-03-29 03:12:00,30.0,25.0,-100.00,NW,322,0.0,0.0,81,0.00,,,-99.99,0.000000,,2013-03-29 07:12:00,
2013-03-29 03:42:00,31.0,26.0,-100.00,NW,320,0.0,0.0,81,0.00,,,-99.99,0.000000,,2013-03-29 07:42:00,
2013-03-29 03:52:00,31.0,26.0,-100.00,NW,320,0.0,0.0,81,0.00,,,-99.99,0.000000,,2013-03-29 07:52:00,
2013-03-29 04:02:00,31.0,26.0,-100.00,NW,320,0.0,0.0,81,0.00,,,-99.99,0.000000,,2013-03-29 08:02:00,
2013-03-29 04:12:00,31.0,26.0,-100.00,NW,320,0.0,0.0,81,0.00,,,-99.99,0.000000,,2013-03-29 08:12:00,
2013-03-29 04:42:00,30.0,25.0,-100.00,NW,320,0.0,0.0,83,0.00,,,-99.99,0.000000,,2013-03-29 08:42:00,
2013-03-29 04:53:00,30.0,25.0,-100.00,NW,320,0.0,0.0,83,0.00,,,-99.99,0.000000,,2013-03-29 08:53:00,
2013-03-29 05:02:00,30.0,25.0,-100.00,NW,320,0.0,0.0,83,0.00,,,-99.99,0.000000,,2013-03-29 09:02:00,
2013-03-29 05:13:00,30.0,25.0,-100.00,NW,320,0.0,0.0,83,0.00,,,-99.99,0.000000,,2013-03-29 09:13:00,
2013-03-29 05:43:00,30.0,25.0,-100.00,NW,319,0.0,0.0,82,0.00,,,-99.99,0.000000,,2013-03-29 09:43:00,
2013-03-29 05:52:00,30.0,25.0,-100.00,NW,319,0.0,0.0,82,0.00,,,-99.99,0.000000,,2013-03-29 09:52:00,
2013-03-29 06:03:00,30.0,25.0,-100.00,NW,319,0.0,0.0,82,0.00,,,-99.99,0.000000,,2013-03-29 10:03:00,
2013-03-29 06:12:00,30.0,25.0,-100.00,NW,319,0.0,0.0,82,0.00,,,-99.99,0.000000,,2013-03-29 10:12:00,
2013-03-29 06:42:00,30.0,25.0,-100.00,NW,321,0.0,0.0,83,0.00,,,-99.99,0.000000,,2013-03-29 10:42:00,
2013-03-29 06:53:00,30.0,25.0,-100.00,NW,321,0.0,0.0,83,0.00,,,-99.99,0.000000,,2013-03-29 10:53:00,
2013-03-29 07:04:00,30.0,25.0,-100.00,NW,321,0.0,0.0,83,0.00,,,-99.99,0.000000,,2013-03-29 11:04:00,
2013-03-29 07:12:00,30.0,25.0,-100.00,NW,321,0.0,0.0,83,0.00,,,-99.99,0.000000,,2013-03-29 11:12:00,
2013-03-29 07:43:00,30.0,25.0,-100.00,NW,321,0.0,0.0,81,0.00,,,-99.99,0.000000,,2013-03-29 11:43:00,
2013-03-29 07:53:00,30.0,25.0,-100.00,NW,321,0.0,0.0,81,0.00,,,-99.99,0.000000,,2013-03-29 11:53:00,
2013-03-29 08:03:00,30.0,25.0,-100.00,NW,321,0.0,0.0,81,0.00,,,-99.99,0.000000,,2013-03-29 12:03:00,
2013-03-29 08:13:00,30.0,25.0,-100.00,NW,321,0.0,0.0,81,0.00,,,-99.99,0.000000,,2013-03-29 12:13:00,
2013-03-29 08:43:00,31.0,25.0,-100.00,NW,320,0.0,0.0,79,0.00,,,-99.99,18.000000,,2013-03-29 12:43:00,
2013-03-29 08:53:00,31.0,25.0,-100.00,NW,320,0.0,0.0,79,0.00,,,-99.99,18.000000,,2013-03-29 12:53:00,
2013-03-29 09:03:00,31.0,25.0,-100.00,NW,320,0.0,0.0,79,0.00,,,-99.99,18.000000,,2013-03-29 13:03:00,
2013-03-29 09:13:00,31.0,25.0,-100.00,NW,320,0.0,0.0,79,0.00,,,-99.99,18.000000,,2013-03-29 13:13:00,
2013-03-29 09:43:00,34.0,28.0,-100.00,NW,313,0.0,0.0,79,0.00,,,-99.99,81.000000,,2013-03-29 13:43:00,
2013-03-29 09:53:00,34.0,28.0,-100.00,NW,313,0.0,0.0,79,0.00,,,-99.99,81.000000,,2013-03-29 13:53:00,
2013-03-29 10:03:00,34.0,28.0,-100.00,NW,313,0.0,0.0,79,0.00,,,-99.99,81.000000,,2013-03-29 14:03:00,
2013-03-29 10:12:00,34.0,28.0,-100.00,NW,313,0.0,0.0,79,0.00,,,-99.99,81.000000,,2013-03-29 14:12:00,
2013-03-29 10:42:00,37.0,28.0,-100.00,NW,314,0.0,0.0,70,0.01,,,-99.99,169.000000,,2013-03-29 14:42:00,
2013-03-29 10:53:00,37.0,28.0,-100.00,NW,314,0.0,0.0,70,0.01,,,-99.99,169.000000,,2013-03-29 14:53:00,
2013-03-29 11:03:00,37.0,28.0,-100.00,NW,314,0.0,0.0,70,0.01,,,-99.99,169.000000,,2013-03-29 15:03:00,
2013-03-29 11:12:00,37.0,28.0,-100.00,NW,314,0.0,0.0,70,0.01,,,-99.99,169.000000,,2013-03-29 15:12:00,
2013-03-29 11:43:00,43.0,29.0,-100.00,NW,317,0.0,0.0,57,0.04,,,-99.99,400.000000,,2013-03-29 15:43:00,
2013-03-29 11:53:00,43.0,29.0,-100.00,NW,317,0.0,0.0,57,0.04,,,-99.99,400.000000,,2013-03-29 15:53:00,
2013-03-29 12:03:00,43.0,29.0,-100.00,NW,317,0.0,0.0,57,0.04,,,-99.99,400.000000,,2013-03-29 16:03:00,
2013-03-29 12:13:00,43.0,29.0,-100.00,NW,317,0.0,0.0,57,0.04,,,-99.99,400.000000,,2013-03-29 16:13:00,
2013-03-29 12:43:00,43.0,24.0,-100.00,NW,308,0.0,0.0,46,0.01,,,-99.99,594.000000,,2013-03-29 16:43:00,
2013-03-29 12:53:00,43.0,24.0,-100.00,NW,308,0.0,0.0,46,0.01,,,-99.99,594.000000,,2013-03-29 16:53:00,
2013-03-29 13:03:00,43.0,24.0,-100.00,NW,308,0.0,0.0,46,0.01,,,-99.99,594.000000,,2013-03-29 17:03:00,
2013-03-29 13:12:00,43.0,24.0,-100.00,NW,308,0.0,0.0,46,0.01,,,-99.99,594.000000,,2013-03-29 17:12:00,
2013-03-29 13:43:00,41.0,26.0,-100.00,NW,322,0.0,0.0,54,0.00,,,-99.99,213.000000,,2013-03-29 17:43:00,
2013-03-29 13:53:00,41.0,26.0,-100.00,NW,322,0.0,0.0,54,0.00,,,-99.99,213.000000,,2013-03-29 17:53:00,
2013-03-29 14:02:00,41.0,26.0,-100.00,NW,322,0.0,0.0,54,0.00,,,-99.99,213.000000,,2013-03-29 18:02:00,
2013-03-29 14:12:00,41.0,26.0,-100.00,NW,322,0.0,0.0,54,0.00,,,-99.99,213.000000,,2013-03-29 18:12:00,
2013-03-29 14:43:00,44.0,25.0,-100.00,NW,317,0.0,0.0,46,0.00,,,0.10,239.000000,,2013-03-29 18:43:00,
2013-03-29 14:53:00,44.0,25.0,-100.00,NW,317,0.0,0.0,46,0.00,,,0.10,239.000000,,2013-03-29 18:53:00,
2013-03-29 15:03:00,44.0,25.0,-100.00,NW,317,0.0,0.0,46,0.00,,,0.10,239.000000,,2013-03-29 19:03:00,
2013-03-29 15:12:00,44.0,25.0,-100.00,NW,317,0.0,0.0,46,0.00,,,0.10,239.000000,,2013-03-29 19:12:00,
2013-03-29 15:43:00,41.0,20.0,-100.00,NW,312,0.0,0.0,42,0.00,,,0.08,268.000000,,2013-03-29 19:43:00,
2013-03-29 15:53:00,41.0,20.0,-100.00,NW,312,0.0,0.0,42,0.00,,,0.08,268.000000,,2013-03-29 19:53:00,
2013-03-29 16:03:00,41.0,20.0,-100.00,NW,312,0.0,0.0,42,0.00,,,0.08,268.000000,,2013-03-29 20:03:00,
2013-03-29 16:12:00,41.0,20.0,-100.00,NW,312,0.0,0.0,42,0.00,,,0.08,268.000000,,2013-03-29 20:12:00,
2013-03-29 16:42:00,43.0,23.0,-100.00,NW,320,0.0,0.0,45,0.00,,,0.07,295.000000,,2013-03-29 20:42:00,
2013-03-29 16:52:00,43.0,23.0,-100.00,NW,320,0.0,0.0,45,0.00,,,0.07,295.000000,,2013-03-29 20:52:00,
2013-03-29 17:02:00,43.0,23.0,-100.00,NW,320,0.0,0.0,45,0.00,,,0.07,295.000000,,2013-03-29 21:02:00,
2013-03-29 17:12:00,43.0,23.0,-100.00,NW,320,0.0,0.0,45,0.00,,,0.07,295.000000,,2013-03-29 21:12:00,
2013-03-29 17:43:00,42.0,24.0,-100.00,NW,317,0.0,0.0,48,0.00,,,0.06,182.000000,,2013-03-29 21:43:00,
2013-03-29 17:53:00,42.0,24.0,-100.00,NW,317,0.0,0.0,48,0.00,,,0.06,182.000000,,2013-03-29 21:53:00,
2013-03-29 18:03:00,42.0,24.0,-100.00,NW,317,0.0,0.0,48,0.00,,,0.06,182.000000,,2013-03-29 22:03:00,
2013-03-29 18:13:00,42.0,24.0,-100.00,NW,317,0.0,0.0,48,0.00,,,0.06,182.000000,,2013-03-29 22:13:00,
2013-03-29 18:43:00,40.0,21.0,-100.00,NW,320,0.0,0.0,47,0.00,,,0.06,147.000000,,2013-03-29 22:43:00,
2013-03-29 18:54:00,40.0,21.0,-100.00,NW,320,0.0,0.0,47,0.00,,,0.06,147.000000,,2013-03-29 22:54:00,
2013-03-29 19:03:00,40.0,21.0,-100.00,NW,320,0.0,0.0,47,0.00,,,0.06,147.000000,,2013-03-29 23:03:00,
2013-03-29 19:12:00,40.0,21.0,-100.00,NW,320,0.0,0.0,47,0.00,,,0.06,147.000000,,2013-03-29 23:12:00,
2013-03-29 19:43:00,39.0,20.0,-100.00,NW,324,0.0,0.0,47,0.00,,,0.06,49.000000,,2013-03-29 23:43:00,
2013-03-29 19:53:00,39.0,20.0,-100.00,NW,324,0.0,0.0,47,0.00,,,0.06,49.000000,,2013-03-29 23:53:00,
2013-03-29 20:03:00,39.0,20.0,-100.00,NW,324,0.0,0.0,47,0.00,,,0.06,49.000000,,2013-03-30 00:03:00,
2013-03-29 20:12:00,39.0,20.0,-100.00,NW,324,0.0,0.0,47,0.00,,,0.06,49.000000,,2013-03-30 00:12:00,
2013-03-29 20:43:00,36.0,21.0,-100.00,NW,323,0.0,0.0,55,0.00,,,0.06,5.000000,,2013-03-30 00:43:00,
2013-03-29 20:53:00,36.0,21.0,-100.00,NW,323,0.0,0.0,55,0.00,,,0.06,5.000000,,2013-03-30 00:53:00,
2013-03-29 21:03:00,36.0,21.0,-100.00,NW,323,0.0,0.0,55,0.00,,,0.06,5.000000,,2013-03-30 01:03:00,
2013-03-29 21:13:00,36.0,21.0,-100.00,NW,323,0.0,0.0,55,0.00,,,0.06,5.000000,,2013-03-30 01:13:00,
2013-03-29 21:43:00,36.0,20.0,-100.00,NW,321,0.0,0.0,52,0.00,,,0.06,0.000000,,2013-03-30 01:43:00,
2013-03-29 21:53:00,36.0,20.0,-100.00,NW,321,0.0,0.0,52,0.00,,,0.06,0.000000,,2013-03-30 01:53:00,
2013-03-29 22:03:00,36.0,20.0,-100.00,NW,321,0.0,0.0,52,0.00,,,0.06,0.000000,,2013-03-30 02:03:00,
2013-03-29 22:13:00,36.0,20.0,-100.00,NW,321,0.0,0.0,52,0.00,,,0.06,0.000000,,2013-03-30 02:13:00,
2013-03-29 22:43:00,36.0,21.0,-100.00,NW,320,0.0,0.0,53,0.00,,,0.06,0.000000,,2013-03-30 02:43:00,
2013-03-29 22:53:00,36.0,21.0,-100.00,NW,320,0.0,0.0,53,0.00,,,0.06,0.000000,,2013-03-30 02:53:00,
2013-03-29 23:03:00,36.0,21.0,-100.00,NW,320,0.0,0.0,53,0.00,,,0.06,0.000000,,2013-03-30 03:03:00,
2013-03-29 23:12:00,36.0,21.0,-100.00,NW,320,0.0,0.0,53,0.00,,,0.06,0.000000,,2013-03-30 03:12:00,
2013-03-29 23:44:00,35.0,20.0,-100.00,NW,322,0.0,0.0,53,0.00,,,0.06,0.000000,,2013-03-30 03:44:00,
2013-03-29 23:53:00,35.0,20.0,-100.00,NW,322,0.0,0.0,53,0.00,,,0.06,0.000000,,2013-03-30 03:53:00,